Time;durP1;ratioP1;P1;durP2;ratioP2;P2;SDS_P1;SDS_P2;PMS_P1;PMS_P2;Temp;Humidity;BMP_temperature;BMP_pressure;BME280_temperature;BME280_humidity;BME280_pressure;Samples;Min_cycle;Max_cycle;Signal;HPM_P1;HPM_P2
2022/07/24 00:01:30;;;;;;;0.40;0.30;;;20.70;99.90;;;;;;4936153;29;20401;-67
2022/07/24 00:03:56;;;;;;;0.40;0.30;;;20.70;99.90;;;;;;4937022;29;20395;-67
2022/07/24 00:06:22;;;;;;;0.40;0.30;;;20.60;99.90;;;;;;4936486;29;20455;-67
2022/07/24 00:08:48;;;;;;;0.47;0.40;;;20.60;99.90;;;;;;4937023;29;20869;-67
2022/07/24 00:11:13;;;;;;;0.40;0.30;;;20.70;99.90;;;;;;4936897;29;20406;-67
2022/07/24 00:13:39;;;;;;;0.40;0.20;;;20.50;99.90;;;;;;4936341;29;20407;-67
2022/07/24 00:16:06;;;;;;;0.60;0.50;;;20.60;99.90;;;;;;4936827;29;20423;-67
2022/07/24 00:18:31;;;;;;;0.50;0.40;;;20.50;99.90;;;;;;4936351;29;20390;-67
2022/07/24 00:20:57;;;;;;;0.50;0.50;;;20.40;99.90;;;;;;4936900;29;20392;-67
2022/07/24 00:23:24;;;;;;;0.40;0.40;;;20.40;99.90;;;;;;4936192;29;20442;-67
2022/07/24 00:25:50;;;;;;;0.93;0.85;;;20.40;99.90;;;;;;4936899;29;20399;-67
2022/07/24 00:28:16;;;;;;;0.40;0.30;;;20.20;99.90;;;;;;4937044;29;20470;-67
2022/07/24 00:30:42;;;;;;;1.70;1.20;;;20.20;99.90;;;;;;4936071;29;20492;-67
2022/07/24 00:33:08;;;;;;;0.40;0.40;;;20.10;99.90;;;;;;4936375;29;20880;-67
2022/07/24 00:35:34;;;;;;;0.40;0.30;;;20.20;99.90;;;;;;4935968;29;20395;-67
2022/07/24 00:37:59;;;;;;;0.40;0.20;;;20.10;99.90;;;;;;4936793;29;20721;-67
2022/07/24 00:40:26;;;;;;;0.40;0.40;;;20.10;99.90;;;;;;4935773;29;20479;-67
2022/07/24 00:42:52;;;;;;;0.40;0.30;;;20.10;99.90;;;;;;4936791;29;20391;-67
2022/07/24 00:45:19;;;;;;;0.50;0.50;;;20.20;99.90;;;;;;4936220;29;20388;-67
2022/07/24 00:47:44;;;;;;;0.40;0.30;;;20.20;99.90;;;;;;4935747;29;20451;-67
2022/07/24 00:50:11;;;;;;;0.40;0.20;;;20.10;99.90;;;;;;4936413;29;20830;-68
2022/07/24 00:52:37;;;;;;;0.63;0.63;;;20.20;99.90;;;;;;4935742;29;20426;-68
2022/07/24 00:55:04;;;;;;;0.40;0.30;;;20.10;99.90;;;;;;4936005;29;20435;-67
2022/07/24 00:57:30;;;;;;;0.40;0.20;;;20.00;99.90;;;;;;4935614;29;20758;-68
2022/07/24 00:59:56;;;;;;;0.40;0.30;;;20.00;99.90;;;;;;4935820;29;20395;-67
2022/07/24 01:02:22;;;;;;;0.70;0.70;;;20.00;99.90;;;;;;4935652;29;20396;-67
2022/07/24 01:04:48;;;;;;;0.60;0.40;;;19.90;99.90;;;;;;4936107;29;20400;-67
2022/07/24 01:07:15;;;;;;;0.40;0.30;;;19.80;99.90;;;;;;4936190;29;20419;-67
2022/07/24 01:09:41;;;;;;;0.88;0.80;;;19.80;99.90;;;;;;4935441;29;20620;-67
2022/07/24 01:12:07;;;;;;;0.50;0.50;;;19.80;99.90;;;;;;4936035;29;20532;-67
2022/07/24 01:14:33;;;;;;;0.40;0.27;;;19.90;99.90;;;;;;4935357;29;20420;-67
2022/07/24 01:16:59;;;;;;;0.40;0.30;;;19.70;99.90;;;;;;4935935;29;20399;-67
2022/07/24 01:19:25;;;;;;;0.70;0.70;;;19.70;99.90;;;;;;4935016;29;20396;-67
2022/07/24 01:21:52;;;;;;;0.70;0.70;;;19.70;99.90;;;;;;4935885;29;20396;-67
2022/07/24 01:24:19;;;;;;;0.68;0.57;;;19.70;99.90;;;;;;4936259;29;20399;-67
2022/07/24 01:26:46;;;;;;;0.60;0.55;;;19.70;99.90;;;;;;4934992;29;21275;-67
2022/07/24 01:29:12;;;;;;;0.80;0.80;;;19.70;99.90;;;;;;4935884;29;20402;-67
2022/07/24 01:31:38;;;;;;;0.40;0.30;;;19.70;99.90;;;;;;4934970;29;20426;-67
2022/07/24 01:34:04;;;;;;;0.60;0.60;;;19.80;99.90;;;;;;4935645;29;20448;-67
2022/07/24 01:36:31;;;;;;;0.50;0.50;;;20.00;99.90;;;;;;4934840;29;20414;-67
2022/07/24 01:38:57;;;;;;;0.40;0.30;;;19.70;99.90;;;;;;4935645;29;20387;-67
2022/07/24 01:41:22;;;;;;;0.40;0.40;;;19.70;99.90;;;;;;4935140;29;20455;-67
2022/07/24 01:43:48;;;;;;;0.52;0.52;;;19.60;99.90;;;;;;4935099;29;20387;-67
2022/07/24 01:46:14;;;;;;;0.60;0.60;;;19.70;99.90;;;;;;4935454;29;20487;-67
2022/07/24 01:48:43;;;;;;;0.40;0.30;;;19.60;99.90;;;;;;4934737;29;20414;-67
2022/07/24 01:51:10;;;;;;;0.50;0.40;;;19.50;99.90;;;;;;4935378;29;20427;-67
2022/07/24 01:53:35;;;;;;;0.40;0.40;;;19.50;99.90;;;;;;4934434;29;20519;-67
2022/07/24 01:56:01;;;;;;;0.50;0.50;;;19.50;99.90;;;;;;4935048;29;20511;-67
2022/07/24 01:58:27;;;;;;;0.40;0.30;;;19.50;99.90;;;;;;4934598;29;20427;-67
2022/07/24 02:00:53;;;;;;;0.40;0.20;;;19.50;99.90;;;;;;4935206;29;20427;-67
2022/07/24 02:03:19;;;;;;;0.40;0.20;;;19.60;99.90;;;;;;4935089;29;20400;-67
2022/07/24 02:05:45;;;;;;;1.30;0.70;;;19.60;99.90;;;;;;4934148;29;20562;-67
2022/07/24 02:08:11;;;;;;;0.50;0.50;;;19.50;99.90;;;;;;4935125;29;20786;-67
2022/07/24 02:10:37;;;;;;;0.40;0.20;;;19.60;99.90;;;;;;4934049;29;20388;-67
2022/07/24 02:13:02;;;;;;;0.60;0.50;;;19.50;99.90;;;;;;4932940;29;20566;-67
2022/07/24 02:15:28;;;;;;;0.40;0.30;;;19.50;99.90;;;;;;4934299;29;20462;-67
2022/07/24 02:17:56;;;;;;;0.40;0.30;;;19.50;99.90;;;;;;4934840;29;20442;-67
2022/07/24 02:20:23;;;;;;;0.40;0.30;;;19.40;99.90;;;;;;4934919;29;20482;-67
2022/07/24 02:22:49;;;;;;;0.40;0.30;;;19.30;99.90;;;;;;4916940;29;20830;-67
2022/07/24 02:25:15;;;;;;;0.40;0.30;;;19.30;99.90;;;;;;4934931;29;20396;-67
2022/07/24 02:27:41;;;;;;;0.40;0.20;;;19.30;99.90;;;;;;4933799;29;20447;-67
2022/07/24 02:30:10;;;;;;;0.40;0.20;;;19.30;99.90;;;;;;4934727;29;20392;-68
2022/07/24 02:32:36;;;;;;;0.40;0.30;;;19.10;99.90;;;;;;4933678;29;20391;-67
2022/07/24 02:35:02;;;;;;;0.40;0.40;;;19.20;99.90;;;;;;4934579;29;20772;-67
2022/07/24 02:37:28;;;;;;;0.80;0.70;;;19.10;99.90;;;;;;4933936;29;20424;-65
2022/07/24 02:39:54;;;;;;;0.40;0.30;;;19.10;99.90;;;;;;4934542;29;20426;-69
2022/07/24 02:42:19;;;;;;;0.60;0.60;;;19.00;99.90;;;;;;4934548;29;20392;-68
2022/07/24 02:44:45;;;;;;;0.40;0.30;;;19.00;99.90;;;;;;4933575;29;20403;-68
2022/07/24 02:47:11;;;;;;;0.40;0.30;;;19.00;99.90;;;;;;4934471;29;20726;-68
2022/07/24 02:49:37;;;;;;;0.50;0.50;;;19.00;99.90;;;;;;4933699;29;20398;-68
2022/07/24 02:52:03;;;;;;;0.40;0.30;;;18.90;99.90;;;;;;4934367;29;20852;-68
2022/07/24 02:54:29;;;;;;;0.53;0.53;;;18.80;99.90;;;;;;4933593;29;20439;-68
2022/07/24 02:56:54;;;;;;;0.47;0.47;;;18.80;99.90;;;;;;4934142;29;20415;-68
2022/07/24 02:59:20;;;;;;;0.70;0.70;;;18.80;99.90;;;;;;4934136;29;20403;-68
2022/07/24 03:01:46;;;;;;;0.40;0.30;;;18.80;99.90;;;;;;4933139;29;20400;-68
2022/07/24 03:04:11;;;;;;;0.40;0.40;;;18.70;99.90;;;;;;4934003;29;20446;-68
2022/07/24 03:06:37;;;;;;;0.40;0.30;;;18.70;99.90;;;;;;4933625;29;20403;-68
2022/07/24 03:09:03;;;;;;;0.40;0.30;;;18.90;99.90;;;;;;4934081;29;20387;-68
2022/07/24 03:11:29;;;;;;;0.40;0.30;;;18.80;99.90;;;;;;4933697;29;20387;-68
2022/07/24 03:13:54;;;;;;;0.60;0.50;;;18.90;99.90;;;;;;4934020;29;20451;-68
2022/07/24 03:16:20;;;;;;;0.40;0.40;;;18.90;99.90;;;;;;4934386;29;20390;-68
2022/07/24 03:18:48;;;;;;;0.40;0.30;;;18.80;99.90;;;;;;4933379;29;20490;-68
2022/07/24 03:21:17;;;;;;;0.40;0.30;;;18.80;99.90;;;;;;4934225;29;20419;-67
2022/07/24 03:23:43;;;;;;;0.40;0.30;;;18.70;99.90;;;;;;4932670;29;20406;-68
2022/07/24 03:26:09;;;;;;;0.40;0.40;;;18.70;99.90;;;;;;4933576;29;20869;-68
2022/07/24 03:28:34;;;;;;;0.40;0.20;;;18.80;99.90;;;;;;4932925;29;20402;-68
2022/07/24 03:31:01;;;;;;;0.40;0.40;;;18.90;99.90;;;;;;4934016;29;20391;-68
2022/07/24 03:33:27;;;;;;;0.40;0.30;;;18.80;99.90;;;;;;4933824;29;20506;-68
2022/07/24 03:35:53;;;;;;;1.00;1.00;;;18.70;99.90;;;;;;4932789;29;20757;-68
2022/07/24 03:38:19;;;;;;;0.40;0.40;;;18.70;99.90;;;;;;4933658;29;20388;-68
2022/07/24 03:40:45;;;;;;;0.40;0.30;;;18.70;99.90;;;;;;4933006;29;20388;-68
2022/07/24 03:43:10;;;;;;;2.00;1.90;;;18.70;99.90;;;;;;4933715;29;20472;-68
2022/07/24 03:45:36;;;;;;;0.50;0.50;;;18.80;99.90;;;;;;4932785;29;20423;-68
2022/07/24 03:48:02;;;;;;;0.40;0.30;;;18.80;99.90;;;;;;4933889;29;20474;-68
2022/07/24 03:50:28;;;;;;;0.40;0.30;;;18.60;99.90;;;;;;4933272;29;20406;-67
2022/07/24 03:52:54;;;;;;;0.60;0.60;;;18.70;99.90;;;;;;4932434;29;21252;-68
2022/07/24 03:55:19;;;;;;;0.40;0.40;;;18.70;99.90;;;;;;4932989;29;20430;-67
2022/07/24 03:57:45;;;;;;;0.80;0.80;;;18.60;99.90;;;;;;4943082;29;20394;-67
2022/07/24 04:00:12;;;;;;;0.40;0.30;;;18.60;99.90;;;;;;4943004;29;20431;-67
2022/07/24 04:02:37;;;;;;;0.40;0.40;;;18.50;99.90;;;;;;4932176;29;20400;-68
2022/07/24 04:05:06;;;;;;;0.40;0.40;;;18.50;99.90;;;;;;4932923;29;20411;-67
2022/07/24 04:07:32;;;;;;;0.40;0.20;;;18.60;99.90;;;;;;4932586;29;20450;-69
2022/07/24 04:09:58;;;;;;;0.40;0.30;;;18.60;99.90;;;;;;4945220;29;20442;-67
2022/07/24 04:12:23;;;;;;;0.40;0.40;;;18.50;99.90;;;;;;4952459;29;20390;-67
2022/07/24 04:14:49;;;;;;;0.70;0.50;;;18.60;99.90;;;;;;4943333;29;20530;-67
2022/07/24 04:17:15;;;;;;;0.40;0.30;;;18.40;99.90;;;;;;4933148;29;20474;-67
2022/07/24 04:19:40;;;;;;;0.40;0.30;;;18.40;99.90;;;;;;4932347;29;20404;-67
2022/07/24 04:22:06;;;;;;;0.40;0.30;;;18.30;99.90;;;;;;4932816;29;20410;-67
2022/07/24 04:24:31;;;;;;;0.60;0.60;;;18.40;99.90;;;;;;4932825;29;20403;-67
2022/07/24 04:26:57;;;;;;;0.80;0.77;;;18.30;99.90;;;;;;4932613;29;20418;-67
2022/07/24 04:29:23;;;;;;;0.50;0.50;;;18.40;99.90;;;;;;4932930;29;20447;-67
2022/07/24 04:31:49;;;;;;;1.00;0.90;;;18.40;99.90;;;;;;4932545;29;20388;-67
2022/07/24 04:34:14;;;;;;;0.40;0.30;;;18.40;99.90;;;;;;4932651;29;20494;-67
2022/07/24 04:36:40;;;;;;;0.40;0.30;;;18.40;99.90;;;;;;4951358;29;20400;-68
2022/07/24 04:39:05;;;;;;;0.50;0.50;;;18.40;99.90;;;;;;4937983;29;20392;-67
2022/07/24 04:41:31;;;;;;;0.50;0.50;;;18.40;99.90;;;;;;4936453;29;20402;-67
2022/07/24 04:43:57;;;;;;;0.40;0.20;;;18.40;99.90;;;;;;4935480;29;20418;-67
2022/07/24 04:46:22;;;;;;;0.40;0.30;;;18.40;99.90;;;;;;4936171;29;20466;-67
2022/07/24 04:48:48;;;;;;;0.80;0.80;;;18.50;99.90;;;;;;4953213;29;20456;-67
2022/07/24 04:51:14;;;;;;;0.40;0.30;;;18.50;99.90;;;;;;4936366;29;20880;-67
2022/07/24 04:53:39;;;;;;;0.40;0.40;;;18.50;99.90;;;;;;4935412;29;20515;-67
2022/07/24 04:56:05;;;;;;;0.40;0.30;;;18.60;99.90;;;;;;4936171;29;20423;-67
2022/07/24 04:58:31;;;;;;;0.40;0.30;;;18.70;99.90;;;;;;4935887;29;20909;-67
2022/07/24 05:00:56;;;;;;;0.40;0.30;;;18.60;99.90;;;;;;4935309;29;20396;-67
2022/07/24 05:03:22;;;;;;;0.50;0.50;;;18.60;99.90;;;;;;4935847;29;20407;-67
2022/07/24 05:05:48;;;;;;;0.40;0.30;;;18.60;99.90;;;;;;4935025;29;20451;-67
2022/07/24 05:08:13;;;;;;;1.00;0.90;;;18.70;99.90;;;;;;4935816;29;20407;-67
2022/07/24 05:10:39;;;;;;;0.90;0.90;;;18.70;99.90;;;;;;4935446;29;20395;-67
2022/07/24 05:13:06;;;;;;;0.40;0.30;;;18.80;99.90;;;;;;4935829;29;21008;-67
2022/07/24 05:15:31;;;;;;;1.00;1.00;;;18.80;99.90;;;;;;4936122;29;20396;-67
2022/07/24 05:17:57;;;;;;;0.60;0.60;;;18.80;99.90;;;;;;4917794;29;20680;-67
2022/07/24 05:20:22;;;;;;;0.90;0.90;;;18.70;99.90;;;;;;4935599;29;20797;-67
2022/07/24 05:22:48;;;;;;;0.40;0.40;;;18.80;99.90;;;;;;4934536;29;20411;-67
2022/07/24 05:25:14;;;;;;;0.70;0.70;;;18.90;99.90;;;;;;4935764;29;20876;-67
2022/07/24 05:27:40;;;;;;;0.85;0.85;;;19.00;99.90;;;;;;4934950;29;20880;-68
2022/07/24 05:30:06;;;;;;;1.00;1.00;;;19.10;99.90;;;;;;4935549;29;20395;-67
2022/07/24 05:32:32;;;;;;;0.85;0.85;;;19.20;99.90;;;;;;4935389;29;20392;-67
2022/07/24 05:34:57;;;;;;;0.40;0.20;;;19.30;99.90;;;;;;4934419;29;20419;-68
2022/07/24 05:37:23;;;;;;;0.50;0.50;;;19.30;99.90;;;;;;4935131;29;20759;-67
2022/07/24 05:39:48;;;;;;;1.40;0.60;;;19.30;99.90;;;;;;4934679;29;20454;-67
2022/07/24 05:42:14;;;;;;;0.40;0.40;;;19.40;99.90;;;;;;4934402;29;20422;-67
2022/07/24 05:44:40;;;;;;;0.50;0.50;;;19.50;99.90;;;;;;4934353;29;20400;-67
2022/07/24 05:47:05;;;;;;;0.80;0.80;;;19.60;99.90;;;;;;4929574;29;20433;-69
2022/07/24 05:49:31;;;;;;;0.40;0.30;;;19.70;99.90;;;;;;4932040;29;20402;-68
2022/07/24 05:51:57;;;;;;;0.40;0.20;;;19.80;99.90;;;;;;4934202;29;20594;-69
2022/07/24 05:54:22;;;;;;;0.40;0.20;;;19.90;99.90;;;;;;4934521;29;20439;-69
2022/07/24 05:56:48;;;;;;;0.40;0.30;;;19.90;99.90;;;;;;4933900;29;20499;-69
2022/07/24 05:59:14;;;;;;;0.40;0.30;;;20.00;99.90;;;;;;4934101;29;20956;-69
2022/07/24 06:01:40;;;;;;;0.40;0.30;;;20.00;99.90;;;;;;4934250;29;20400;-69
2022/07/24 06:04:06;;;;;;;0.80;0.80;;;20.00;99.90;;;;;;4933650;29;20513;-69
2022/07/24 06:06:31;;;;;;;0.40;0.40;;;20.20;99.90;;;;;;4934679;29;20459;-69
2022/07/24 06:08:57;;;;;;;0.60;0.52;;;20.30;99.90;;;;;;4933365;29;20821;-69
2022/07/24 06:11:23;;;;;;;0.40;0.30;;;20.30;99.90;;;;;;4934221;29;20467;-69
2022/07/24 06:13:49;;;;;;;0.60;0.60;;;20.30;99.90;;;;;;4933269;29;20435;-69
2022/07/24 06:16:15;;;;;;;0.40;0.20;;;20.40;99.90;;;;;;4933675;29;20427;-69
2022/07/24 06:18:41;;;;;;;0.40;0.30;;;20.40;99.90;;;;;;4934250;29;20400;-69
2022/07/24 06:21:06;;;;;;;0.40;0.20;;;20.50;99.90;;;;;;4933917;29;20392;-69
2022/07/24 06:23:32;;;;;;;0.40;0.30;;;20.60;99.90;;;;;;4933902;29;20781;-69
2022/07/24 06:25:58;;;;;;;0.40;0.20;;;20.70;99.90;;;;;;4932433;29;20399;-69
2022/07/24 06:28:24;;;;;;;0.60;0.60;;;20.90;99.90;;;;;;4911432;29;20877;-69
2022/07/24 06:30:50;;;;;;;0.50;0.50;;;20.80;99.90;;;;;;4928587;29;20465;-69
2022/07/24 06:33:15;;;;;;;0.40;0.28;;;20.80;99.90;;;;;;4931619;29;20455;-71
2022/07/24 06:35:41;;;;;;;0.50;0.40;;;21.00;99.90;;;;;;4930762;29;20414;-69
2022/07/24 06:38:07;;;;;;;0.57;0.57;;;21.00;99.90;;;;;;4933290;29;20443;-69
2022/07/24 06:40:34;;;;;;;0.40;0.30;;;21.10;99.90;;;;;;4933435;29;20778;-69
2022/07/24 06:42:59;;;;;;;0.40;0.30;;;21.20;99.90;;;;;;4933351;29;20934;-69
2022/07/24 06:45:25;;;;;;;0.60;0.60;;;21.40;99.90;;;;;;4934815;29;20483;-69
2022/07/24 06:47:51;;;;;;;0.60;0.60;;;21.50;99.90;;;;;;4939645;29;20861;-69
2022/07/24 06:50:17;;;;;;;0.50;0.30;;;21.50;99.90;;;;;;4933779;29;20760;-69
2022/07/24 06:52:43;;;;;;;0.40;0.30;;;21.50;99.90;;;;;;4932968;29;20945;-69
2022/07/24 06:55:09;;;;;;;0.40;0.30;;;21.50;99.90;;;;;;4933133;29;20435;-69
2022/07/24 06:57:35;;;;;;;0.40;0.28;;;21.70;99.90;;;;;;4933180;29;20414;-68
2022/07/24 07:00:01;;;;;;;0.40;0.30;;;21.90;99.90;;;;;;4932957;29;20391;-69
2022/07/24 07:02:27;;;;;;;0.80;0.70;;;21.90;99.90;;;;;;4933675;29;20733;-69
2022/07/24 07:04:52;;;;;;;0.40;0.30;;;21.90;99.90;;;;;;4933046;29;20398;-70
2022/07/24 07:07:18;;;;;;;0.47;0.40;;;22.10;99.90;;;;;;4933269;29;20426;-67
2022/07/24 07:09:44;;;;;;;0.40;0.40;;;22.20;99.90;;;;;;4930499;29;20736;-69
2022/07/24 07:12:10;;;;;;;0.40;0.30;;;22.20;99.90;;;;;;4933417;29;20395;-67
2022/07/24 07:14:36;;;;;;;0.50;0.30;;;22.30;99.90;;;;;;4933569;29;20451;-67
2022/07/24 07:17:02;;;;;;;0.40;0.20;;;22.30;99.90;;;;;;4933116;29;20525;-68
2022/07/24 07:19:27;;;;;;;0.40;0.30;;;22.40;99.90;;;;;;4916846;29;20877;-68
2022/07/24 07:21:53;;;;;;;0.40;0.30;;;22.50;99.90;;;;;;4932715;29;20892;-68
2022/07/24 07:24:19;;;;;;;0.40;0.20;;;22.60;99.90;;;;;;4933985;29;20411;-68
2022/07/24 07:26:44;;;;;;;0.50;0.40;;;22.80;99.90;;;;;;4933488;29;20943;-68
2022/07/24 07:29:10;;;;;;;0.80;0.80;;;23.00;99.90;;;;;;4932980;29;20437;-68
2022/07/24 07:31:36;;;;;;;0.70;0.70;;;23.40;99.90;;;;;;4932998;29;20408;-69
2022/07/24 07:34:02;;;;;;;0.40;0.30;;;23.50;99.90;;;;;;4930708;29;20775;-69
2022/07/24 07:36:28;;;;;;;0.40;0.30;;;23.50;99.90;;;;;;4929923;29;20518;-68
2022/07/24 07:38:54;;;;;;;0.80;0.80;;;23.70;99.90;;;;;;4932450;29;20400;-68
2022/07/24 07:41:19;;;;;;;0.60;0.50;;;23.70;99.90;;;;;;4929070;29;20462;-69
2022/07/24 07:43:48;;;;;;;0.45;0.40;;;23.60;99.90;;;;;;4933327;29;20399;-68
2022/07/24 07:46:14;;;;;;;0.60;0.60;;;23.70;99.90;;;;;;4933481;29;20392;-67
2022/07/24 07:48:40;;;;;;;0.80;0.80;;;23.60;99.90;;;;;;4932865;29;20494;-68
2022/07/24 07:51:06;;;;;;;0.40;0.23;;;23.90;99.90;;;;;;4932299;29;21022;-68
2022/07/24 07:53:32;;;;;;;1.70;1.10;;;24.00;99.90;;;;;;4932689;29;20423;-68
2022/07/24 07:55:58;;;;;;;0.60;0.60;;;24.20;99.90;;;;;;4932234;29;20766;-68
2022/07/24 07:58:23;;;;;;;0.40;0.30;;;24.10;99.90;;;;;;4933247;29;20452;-68
2022/07/24 08:00:49;;;;;;;0.40;0.30;;;24.20;99.90;;;;;;4932452;29;20399;-68
2022/07/24 08:03:15;;;;;;;0.50;0.50;;;24.30;99.90;;;;;;4933172;29;20586;-69
2022/07/24 08:05:41;;;;;;;0.40;0.30;;;24.30;99.90;;;;;;4932372;29;20687;-68
2022/07/24 08:08:07;;;;;;;0.40;0.20;;;24.40;99.90;;;;;;4929970;29;20415;-68
2022/07/24 08:10:32;;;;;;;1.00;0.60;;;24.40;99.90;;;;;;4935199;29;20388;-68
2022/07/24 08:12:58;;;;;;;0.60;0.60;;;24.50;99.90;;;;;;4936354;29;20467;-68
2022/07/24 08:15:24;;;;;;;0.80;0.80;;;24.50;99.90;;;;;;4936378;29;20412;-67
2022/07/24 08:17:54;;;;;;;0.40;0.20;;;24.70;99.90;;;;;;4936473;29;20438;-68
2022/07/24 08:20:20;;;;;;;0.40;0.30;;;24.60;99.90;;;;;;4937122;29;20400;-69
2022/07/24 08:22:47;;;;;;;0.70;0.70;;;24.70;99.90;;;;;;4936142;29;20769;-68
2022/07/24 08:25:13;;;;;;;0.40;0.20;;;24.70;99.90;;;;;;4935226;29;20474;-66
2022/07/24 08:27:39;;;;;;;0.40;0.20;;;24.70;99.90;;;;;;4936723;29;20760;-67
2022/07/24 08:30:05;;;;;;;0.60;0.60;;;24.90;99.90;;;;;;4935920;29;20394;-69
2022/07/24 08:32:31;;;;;;;0.40;0.30;;;24.90;99.40;;;;;;4936802;29;20399;-69
2022/07/24 08:34:57;;;;;;;0.50;0.50;;;24.80;99.80;;;;;;4934569;29;20431;-69
2022/07/24 08:37:22;;;;;;;0.40;0.30;;;25.10;98.90;;;;;;4936434;29;20431;-69
2022/07/24 08:39:48;;;;;;;0.80;0.80;;;25.10;97.80;;;;;;4953122;29;20386;-70
2022/07/24 08:42:14;;;;;;;0.40;0.30;;;25.10;97.90;;;;;;4955360;29;20390;-69
2022/07/24 08:44:39;;;;;;;0.40;0.30;;;25.10;99.00;;;;;;4949215;29;20407;-69
2022/07/24 08:47:09;;;;;;;0.45;0.40;;;25.10;97.70;;;;;;4938106;29;20405;-69
2022/07/24 08:49:36;;;;;;;0.50;0.50;;;25.20;97.70;;;;;;4950736;29;20756;-67
2022/07/24 08:52:08;;;;;;;0.60;0.50;;;25.40;97.30;;;;;;4934434;29;20829;-68
2022/07/24 08:54:36;;;;;;;0.40;0.30;;;25.40;96.80;;;;;;4932664;29;20443;-69
2022/07/24 08:57:03;;;;;;;0.40;0.30;;;25.40;96.70;;;;;;4934213;29;20435;-68
2022/07/24 08:59:29;;;;;;;0.40;0.30;;;25.20;96.40;;;;;;4935686;29;20407;-69
2022/07/24 09:01:55;;;;;;;0.40;0.30;;;25.50;95.20;;;;;;4934377;29;20772;-69
2022/07/24 09:04:42;;;;;;;0.40;0.20;;;25.50;94.60;;;;;;4935864;29;20407;-69
2022/07/24 09:07:14;;;;;;;0.40;0.30;;;25.40;96.50;;;;;;4933134;29;20415;-68
2022/07/24 09:09:41;;;;;;;0.40;0.30;;;25.40;95.20;;;;;;4935602;29;20412;-68
2022/07/24 09:12:10;;;;;;;0.50;0.40;;;25.50;95.50;;;;;;4935342;29;21211;-68
2022/07/24 09:14:38;;;;;;;0.50;0.40;;;25.50;94.90;;;;;;4932382;29;20485;-68
2022/07/24 09:17:13;;;;;;;1.08;1.02;;;25.60;95.90;;;;;;4934580;29;20406;-69
2022/07/24 09:19:59;;;;;;;1.63;0.77;;;25.70;97.70;;;;;;4932602;29;20403;-69
2022/07/24 09:22:36;;;;;;;0.75;0.50;;;25.80;96.20;;;;;;4939144;29;20466;-68
2022/07/24 09:25:06;;;;;;;0.40;0.30;;;26.10;95.00;;;;;;4933913;29;20418;-67
2022/07/24 09:27:37;;;;;;;0.40;0.20;;;26.00;95.20;;;;;;4932486;29;20415;-68
2022/07/24 09:30:04;;;;;;;0.40;0.30;;;26.00;95.50;;;;;;4931856;29;20403;-68
2022/07/24 09:32:30;;;;;;;0.88;0.88;;;26.00;95.20;;;;;;4932521;29;20403;-68
2022/07/24 09:34:56;;;;;;;0.70;0.70;;;26.30;94.70;;;;;;4931042;29;20927;-68
2022/07/24 09:37:31;;;;;;;0.60;0.52;;;26.10;96.10;;;;;;4934053;29;20443;-68
2022/07/24 09:40:07;;;;;;;0.40;0.40;;;25.90;96.60;;;;;;4933773;29;20431;-69
2022/07/24 09:42:38;;;;;;;0.80;0.80;;;26.20;95.60;;;;;;4930078;29;20965;-67
2022/07/24 09:45:07;;;;;;;0.82;0.82;;;26.50;94.40;;;;;;4931626;29;20399;-68
2022/07/24 09:47:34;;;;;;;1.10;0.90;;;26.50;93.90;;;;;;4933702;29;20403;-68
2022/07/24 09:50:12;;;;;;;1.20;1.20;;;26.50;93.60;;;;;;4934023;29;20403;-67
2022/07/24 09:52:40;;;;;;;0.60;0.60;;;26.60;92.90;;;;;;4934636;29;20479;-67
2022/07/24 09:55:19;;;;;;;0.40;0.20;;;26.60;92.30;;;;;;4933448;29;20435;-68
2022/07/24 09:57:45;;;;;;;0.40;0.30;;;26.60;93.10;;;;;;4934751;29;20431;-68
2022/07/24 10:00:11;;;;;;;1.70;1.20;;;26.70;93.30;;;;;;4930964;29;20423;-68
2022/07/24 10:02:37;;;;;;;0.50;0.50;;;26.90;93.40;;;;;;4933996;29;20416;-68
2022/07/24 10:05:04;;;;;;;0.40;0.22;;;26.80;93.40;;;;;;4934049;29;20396;-68
2022/07/24 10:07:30;;;;;;;1.00;1.00;;;26.70;91.70;;;;;;4932068;29;20487;-68
2022/07/24 10:09:59;;;;;;;0.40;0.40;;;27.00;92.00;;;;;;4931102;29;20462;-67
2022/07/24 10:12:29;;;;;;;0.40;0.20;;;26.90;90.90;;;;;;4934403;29;20718;-68
2022/07/24 10:14:56;;;;;;;0.80;0.80;;;26.90;91.00;;;;;;4929759;29;20431;-69
2022/07/24 10:17:45;;;;;;;0.40;0.30;;;26.90;90.90;;;;;;4934080;29;20407;-68
2022/07/24 10:20:16;;;;;;;0.40;0.30;;;27.10;90.20;;;;;;4929012;29;20692;-67
2022/07/24 10:23:03;;;;;;;0.57;0.57;;;27.30;88.90;;;;;;4927223;29;20495;-67
2022/07/24 10:25:38;;;;;;;1.20;1.10;;;27.20;88.20;;;;;;4932079;29;20452;-68
2022/07/24 10:28:08;;;;;;;0.75;0.75;;;27.30;88.70;;;;;;4931703;29;20494;-68
2022/07/24 10:30:34;;;;;;;0.40;0.30;;;27.30;88.50;;;;;;4934093;29;20391;-68
2022/07/24 10:33:00;;;;;;;0.40;0.30;;;27.20;87.50;;;;;;4921564;29;20400;-68
2022/07/24 10:35:31;;;;;;;0.40;0.30;;;27.40;87.70;;;;;;4932576;29;20407;-69
2022/07/24 10:38:06;;;;;;;0.40;0.30;;;27.40;87.80;;;;;;4925329;29;20426;-69
2022/07/24 10:40:53;;;;;;;0.55;0.55;;;27.60;87.20;;;;;;4925071;29;20418;-69
2022/07/24 10:43:21;;;;;;;1.20;0.80;;;27.60;84.90;;;;;;4930418;29;20388;-69
2022/07/24 10:46:07;;;;;;;0.70;0.65;;;27.70;86.50;;;;;;4932729;29;20939;-69
2022/07/24 10:48:36;;;;;;;0.40;0.40;;;27.50;87.50;;;;;;4931287;29;20391;-69
2022/07/24 10:51:05;;;;;;;0.40;0.30;;;27.70;87.80;;;;;;4931512;29;20396;-69
2022/07/24 10:53:51;;;;;;;0.40;0.30;;;27.90;82.90;;;;;;4932625;29;20479;-69
2022/07/24 10:56:17;;;;;;;0.40;0.30;;;27.90;82.40;;;;;;4932247;29;20439;-69
2022/07/24 10:59:04;;;;;;;0.40;0.30;;;28.10;81.60;;;;;;4931956;29;20942;-69
2022/07/24 11:01:35;;;;;;;1.20;0.70;;;28.20;80.50;;;;;;4929416;29;21328;-69
2022/07/24 11:04:23;;;;;;;0.60;0.60;;;28.20;80.50;;;;;;4928542;29;20427;-69
2022/07/24 11:06:48;;;;;;;0.40;0.30;;;28.10;82.30;;;;;;4932492;29;20403;-69
2022/07/24 11:09:16;;;;;;;1.20;0.70;;;28.30;82.30;;;;;;4931476;29;20423;-70
2022/07/24 11:11:51;;;;;;;0.43;0.33;;;28.40;77.40;;;;;;4932675;29;20452;-69
2022/07/24 11:14:38;;;;;;;0.90;0.90;;;28.50;78.10;;;;;;4931670;29;20424;-67
2022/07/24 11:17:41;;;;;;;0.40;0.23;;;28.60;76.50;;;;;;4921554;29;20426;-68
2022/07/24 11:20:10;;;;;;;0.60;0.60;;;28.80;76.50;;;;;;4928748;29;20415;-68
2022/07/24 11:22:44;;;;;;;0.40;0.20;;;28.80;74.50;;;;;;4932421;29;20403;-67
2022/07/24 11:25:19;;;;;;;0.80;0.70;;;28.60;73.50;;;;;;4931825;29;20410;-67
2022/07/24 11:27:46;;;;;;;0.40;0.30;;;28.60;73.60;;;;;;4929791;29;20395;-68
2022/07/24 11:30:12;;;;;;;0.43;0.35;;;29.00;74.60;;;;;;4930727;29;20442;-68
2022/07/24 11:32:40;;;;;;;0.40;0.30;;;28.90;75.00;;;;;;4931980;29;20384;-68
2022/07/24 11:35:08;;;;;;;0.60;0.60;;;29.10;75.20;;;;;;4931487;29;20427;-66
2022/07/24 11:37:35;;;;;;;0.60;0.60;;;29.00;73.40;;;;;;4932295;29;20798;-66
2022/07/24 11:40:03;;;;;;;0.50;0.50;;;29.20;72.90;;;;;;4930765;29;20392;-66
2022/07/24 11:42:29;;;;;;;0.40;0.30;;;29.40;72.50;;;;;;4931778;29;20895;-68
2022/07/24 11:44:55;;;;;;;0.40;0.30;;;29.70;72.30;;;;;;4931292;29;20388;-70
2022/07/24 11:47:23;;;;;;;0.40;0.20;;;29.90;68.60;;;;;;4932189;29;20388;-68
2022/07/24 11:49:54;;;;;;;0.40;0.30;;;31.00;68.60;;;;;;4931353;29;20756;-68
2022/07/24 11:52:26;;;;;;;4.90;0.80;;;31.70;65.20;;;;;;4931739;29;20495;-69
2022/07/24 11:54:55;;;;;;;0.40;0.20;;;31.70;64.70;;;;;;4930334;29;20437;-68
2022/07/24 11:57:27;;;;;;;0.40;0.20;;;32.50;60.20;;;;;;4931649;29;20543;-68
2022/07/24 11:59:53;;;;;;;0.40;0.30;;;32.40;59.30;;;;;;4931622;29;20891;-67
2022/07/24 12:02:19;;;;;;;0.40;0.20;;;31.90;60.10;;;;;;4931445;29;20396;-68
2022/07/24 12:04:47;;;;;;;0.40;0.30;;;31.80;60.50;;;;;;4931786;29;20395;-68
2022/07/24 12:07:24;;;;;;;0.40;0.30;;;31.90;60.50;;;;;;4931238;29;20388;-70
2022/07/24 12:09:57;;;;;;;0.40;0.20;;;32.00;60.30;;;;;;4930531;29;20399;-69
2022/07/24 12:12:33;;;;;;;0.40;0.20;;;32.10;64.10;;;;;;4931920;29;20467;-69
2022/07/24 12:15:09;;;;;;;0.40;0.20;;;32.00;60.80;;;;;;4930354;29;20419;-69
2022/07/24 12:17:55;;;;;;;0.40;0.20;;;32.60;58.20;;;;;;4932262;29;20410;-69
2022/07/24 12:20:29;;;;;;;0.40;0.30;;;32.60;58.50;;;;;;4931224;29;20388;-68
2022/07/24 12:22:56;;;;;;;2.60;0.55;;;32.70;58.60;;;;;;4929140;29;20391;-68
2022/07/24 12:25:23;;;;;;;0.40;0.20;;;33.20;56.50;;;;;;4931829;29;20971;-69
2022/07/24 12:27:52;;;;;;;0.40;0.20;;;32.70;57.10;;;;;;4932202;29;20399;-69
2022/07/24 12:30:28;;;;;;;0.40;0.20;;;32.80;57.10;;;;;;4932098;29;20398;-69
2022/07/24 12:33:00;;;;;;;0.40;0.20;;;33.00;57.40;;;;;;4932573;29;20395;-68
2022/07/24 12:35:27;;;;;;;0.40;0.20;;;33.30;55.90;;;;;;4932775;29;20419;-69
2022/07/24 12:37:53;;;;;;;0.40;0.20;;;32.70;56.90;;;;;;4932922;29;20450;-69
2022/07/24 12:40:29;;;;;;;0.40;0.20;;;31.80;56.40;;;;;;4932200;29;20508;-69
2022/07/24 12:43:00;;;;;;;0.40;0.20;;;31.40;59.00;;;;;;4931658;29;20876;-69
2022/07/24 12:45:26;;;;;;;0.40;0.30;;;32.20;58.60;;;;;;4931567;29;20403;-68
2022/07/24 12:48:10;;;;;;;0.40;0.20;;;32.30;57.80;;;;;;4932332;29;20400;-68
2022/07/24 12:50:37;;;;;;;0.40;0.20;;;32.70;58.70;;;;;;4933147;29;20433;-68